KVPS/VPS METAR and TAF weather

Enter ICAO airport designator
Station Type Date Time Source
KVPS METAR 2019/02/21 00:32 UTC NOAA

KVPS 210032Z AUTO 15006KT 1 1/8SM BR OVC001 20/20 A2998 RMK AO2 RAE2358RAB15E17 SLP159 $


Station Type Date Time Source
KVPS Decoded METAR 2019/02/21 00:32 UTC NOAA

Valparaiso / Eglin Air Force Base, FL, United States (KVPS) 30-29N 086-31W 29M
Feb 20, 2019 - 07:32 PM EST / 2019.02.21 0032 UTC
Wind: from the SSE (150 degrees) at 7 MPH (6 KT):0
Visibility: 1 1/8 mile(s):0
Sky conditions: overcast
Weather: mist
Temperature: 68 F (20 C)
Dew Point: 68 F (20 C)
Relative Humidity: 100%
Pressure (altimeter): 29.98 in. Hg (1015 hPa)
ob: KVPS 210032Z AUTO 15006KT 1 1/8SM BR OVC001 20/20 A2998 RMK AO2 RAE2358RAB15E17 SLP159
cycle: 0

Station Type Date Time Source
KVPS TAF 2019/02/20 22:42 UTC NOAA

TAF
AMD KVPS 202230Z 2022/2124 15009KT 0400 FG OVC001 QNH2996INS
BECMG 2111/2112 15006KT 0800 FG OVC003 QNH2998INS
BECMG 2115/2116 17008KT 4800 BR OVC005 QNH3000INS TX22/2121Z TN18/2112Z


Example: see airport list